Time;durP1;ratioP1;P1;durP2;ratioP2;P2;SDS_P1;SDS_P2;PMS_P1;PMS_P2;Temp;Humidity;BMP_temperature;BMP_pressure;BME280_temperature;BME280_humidity;BME280_pressure;Samples;Min_cycle;Max_cycle;Signal;HPM_P1;HPM_P2
2022/03/17 00:00:57;;;;;;;38.00;28.10;;;;;;;11.26;73.75;101177.50;5137429;27;20730;-65
2022/03/17 00:03:25;;;;;;;38.07;28.37;;;;;;;11.33;74.43;101177.81;5129093;27;20648;-65
2022/03/17 00:05:53;;;;;;;40.77;28.40;;;;;;;11.37;73.59;101176.56;5131413;27;20232;-64
2022/03/17 00:08:23;;;;;;;43.53;30.30;;;;;;;11.27;74.33;101184.50;5130669;27;20375;-64
2022/03/17 00:10:51;;;;;;;42.67;30.37;;;;;;;11.37;73.85;101183.69;5137177;27;20200;-64
2022/03/17 00:13:21;;;;;;;39.27;28.73;;;;;;;11.36;73.62;101177.53;5142175;27;20585;-64
2022/03/17 00:15:49;;;;;;;41.47;29.53;;;;;;;11.19;74.53;101175.53;5131597;27;20203;-66
2022/03/17 00:18:17;;;;;;;44.13;32.47;;;;;;;11.23;74.46;101182.25;5134358;27;20218;-64
2022/03/17 00:20:45;;;;;;;49.57;33.43;;;;;;;11.05;75.06;101184.72;5126177;27;20216;-64
2022/03/17 00:23:26;;;;;;;47.33;32.93;;;;;;;11.23;73.83;101187.56;5129839;27;20204;-65
2022/03/17 00:25:57;;;;;;;46.13;31.77;;;;;;;11.19;74.31;101186.16;5131382;27;20338;-65
2022/03/17 00:28:26;;;;;;;42.77;30.67;;;;;;;11.05;75.71;101184.72;5130715;27;20908;-65
2022/03/17 00:30:57;;;;;;;38.13;28.13;;;;;;;11.19;74.92;101191.44;5126824;27;20574;-64
2022/03/17 00:33:25;;;;;;;39.80;30.37;;;;;;;11.22;74.22;101185.88;5123780;27;20310;-64
2022/03/17 00:35:52;;;;;;;42.40;29.03;;;;;;;11.19;74.80;101181.69;5122725;27;20693;-64
2022/03/17 00:38:20;;;;;;;40.77;27.87;;;;;;;11.29;74.03;101181.72;5125049;27;20212;-63
2022/03/17 00:40:48;;;;;;;37.43;27.77;;;;;;;11.35;73.39;101182.97;5127757;27;20286;-64
2022/03/17 00:43:16;;;;;;;39.87;29.10;;;;;;;11.29;73.56;101182.56;5124652;27;20539;-64
2022/03/17 00:45:47;;;;;;;43.80;30.63;;;;;;;11.10;75.19;101182.47;5131511;27;20341;-64
2022/03/17 00:48:15;;;;;;;43.20;29.77;;;;;;;10.85;75.70;101172.31;5124552;27;20212;-65
2022/03/17 00:50:43;;;;;;;38.00;29.20;;;;;;;11.15;74.88;101174.13;5121628;27;20200;-64
2022/03/17 00:53:11;;;;;;;38.37;28.37;;;;;;;11.24;73.88;101178.63;5123667;27;20567;-64
2022/03/17 00:55:38;;;;;;;44.23;29.13;;;;;;;11.22;74.22;101180.56;5125740;27;20212;-65
2022/03/17 00:58:06;;;;;;;39.40;28.50;;;;;;;11.23;73.74;101176.94;5123083;27;20299;-65
2022/03/17 01:00:34;;;;;;;41.17;28.47;;;;;;;11.27;73.32;101178.34;5126440;27;20582;-64
2022/03/17 01:03:05;;;;;;;40.73;28.90;;;;;;;11.27;73.32;101183.66;5123048;27;20216;-63
2022/03/17 01:05:33;;;;;;;38.80;28.53;;;;;;;11.23;73.56;101182.25;5125057;27;20266;-64
2022/03/17 01:08:00;;;;;;;39.77;28.57;;;;;;;10.82;76.38;101193.81;5121807;27;20219;-64
2022/03/17 01:10:31;;;;;;;38.27;26.90;;;;;;;10.50;78.96;101191.25;5123001;27;20408;-63
2022/03/17 01:13:03;;;;;;;36.37;26.43;;;;;;;10.45;79.60;101191.66;5121581;27;20206;-65
2022/03/17 01:15:30;;;;;;;38.70;28.23;;;;;;;10.65;78.61;101191.75;5123564;27;20639;-65
2022/03/17 01:17:58;;;;;;;40.27;26.20;;;;;;;10.56;78.94;101188.09;5121218;27;20294;-65
2022/03/17 01:20:29;;;;;;;35.67;26.67;;;;;;;10.78;77.30;101198.56;5122374;27;20217;-63
2022/03/17 01:23:00;;;;;;;38.37;28.20;;;;;;;10.42;78.30;101196.38;5123058;27;20716;-63
2022/03/17 01:25:29;;;;;;;39.57;27.77;;;;;;;10.66;77.34;101186.31;5124179;27;20237;-65
2022/03/17 01:27:59;;;;;;;41.70;27.87;;;;;;;10.93;76.07;101191.91;5121596;27;20325;-64
2022/03/17 01:30:27;;;;;;;39.40;28.10;;;;;;;11.01;75.08;101191.25;5121842;27;20297;-64
2022/03/17 01:32:55;;;;;;;35.47;26.27;;;;;;;10.76;75.50;101191.69;5122770;27;21659;-65
2022/03/17 01:35:23;;;;;;;38.77;28.50;;;;;;;10.91;74.84;101182.41;5123777;27;20203;-66
2022/03/17 01:37:52;;;;;;;38.10;26.87;;;;;;;10.68;74.96;101188.84;5122342;27;20202;-65
2022/03/17 01:40:21;;;;;;;40.37;28.73;;;;;;;10.80;74.86;101185.16;5120050;27;20201;-65
2022/03/17 01:42:49;;;;;;;38.87;27.43;;;;;;;10.74;75.39;101181.19;5119698;27;20583;-65
2022/03/17 01:45:17;;;;;;;39.60;26.67;;;;;;;10.74;75.56;101185.66;5127064;27;20679;-64
2022/03/17 01:47:46;;;;;;;36.53;26.83;;;;;;;10.99;74.44;101177.28;5125345;27;20571;-63
2022/03/17 01:50:16;;;;;;;39.77;28.37;;;;;;;10.90;74.70;101181.59;5121986;27;20207;-64
2022/03/17 01:52:45;;;;;;;39.70;27.80;;;;;;;10.88;75.31;101178.22;5123977;27;20787;-65
2022/03/17 01:55:17;;;;;;;37.70;27.53;;;;;;;11.05;74.75;101183.88;5123375;27;20210;-64
2022/03/17 01:57:45;;;;;;;40.40;28.57;;;;;;;10.84;75.58;101178.59;5122766;27;20242;-65
2022/03/17 02:00:17;;;;;;;43.33;29.23;;;;;;;10.89;76.00;101171.94;5123175;27;20214;-63
2022/03/17 02:02:45;;;;;;;40.17;26.23;;;;;;;10.99;74.57;101181.75;5119609;27;20283;-65
2022/03/17 02:05:13;;;;;;;38.17;28.23;;;;;;;11.02;73.78;101176.16;5122864;27;20245;-64
2022/03/17 02:07:42;;;;;;;37.10;26.87;;;;;;;11.04;72.97;101177.72;5121048;27;20234;-63
2022/03/17 02:10:10;;;;;;;39.27;26.83;;;;;;;11.09;73.26;101179.97;5125710;27;20205;-64
2022/03/17 02:15:27;;;;;;;37.27;27.30;;;;;;;10.90;75.34;101186.91;5102309;28;20209;-64
2022/03/17 02:17:56;;;;;;;35.93;26.30;;;;;;;10.94;75.12;101192.75;5103003;28;20206;-63
2022/03/17 02:20:24;;;;;;;35.67;26.83;;;;;;;10.91;75.53;101188.53;5098834;28;20205;-64
2022/03/17 02:22:55;;;;;;;37.90;26.43;;;;;;;10.99;74.55;101195.03;5098511;28;20254;-65
2022/03/17 02:25:36;;;;;;;35.30;26.37;;;;;;;10.47;76.75;101202.13;5102308;28;20299;-63
2022/03/17 02:28:06;;;;;;;41.93;28.00;;;;;;;10.82;75.09;101199.94;5100922;28;20236;-64
2022/03/17 02:30:39;;;;;;;39.03;28.23;;;;;;;10.90;74.46;101202.81;5099138;28;20200;-65
2022/03/17 02:33:09;;;;;;;42.33;29.90;;;;;;;11.04;73.56;101203.41;5103693;28;20215;-63
2022/03/17 02:35:41;;;;;;;40.93;28.00;;;;;;;11.05;72.36;101203.28;5098853;28;20206;-63
2022/03/17 02:38:13;;;;;;;40.87;27.50;;;;;;;11.05;72.10;101199.78;5105099;27;20200;-63
2022/03/17 02:40:46;;;;;;;43.30;27.67;;;;;;;11.02;72.31;101198.22;5101554;28;20203;-64
2022/03/17 02:43:16;;;;;;;37.87;27.57;;;;;;;11.06;72.48;101201.47;5102654;28;20608;-64
2022/03/17 02:45:45;;;;;;;36.07;27.13;;;;;;;10.84;73.85;101203.31;5101840;28;20676;-65
2022/03/17 02:48:13;;;;;;;45.37;28.73;;;;;;;10.84;74.08;101213.94;5101492;28;20589;-66
2022/03/17 02:50:41;;;;;;;40.77;28.53;;;;;;;10.97;73.18;101199.63;5102055;28;20199;-65
2022/03/17 02:53:11;;;;;;;40.27;27.20;;;;;;;10.84;73.38;101208.63;5099952;28;20244;-64
2022/03/17 02:55:40;;;;;;;39.10;27.43;;;;;;;10.99;73.13;101205.66;5100432;27;20244;-65
2022/03/17 02:58:19;;;;;;;41.03;27.30;;;;;;;10.91;72.80;101203.63;5100534;28;20247;-65
2022/03/17 03:00:47;;;;;;;40.33;27.63;;;;;;;10.93;72.65;101202.53;5097979;28;20573;-63
2022/03/17 03:03:17;;;;;;;36.57;27.73;;;;;;;10.96;73.67;101212.03;5101575;28;20563;-65
2022/03/17 03:05:45;;;;;;;38.03;28.47;;;;;;;11.00;73.51;101217.91;5101196;28;20276;-63
2022/03/17 03:08:13;;;;;;;40.53;29.57;;;;;;;10.94;73.81;101209.53;5101263;28;20459;-65
2022/03/17 03:10:41;;;;;;;38.53;29.23;;;;;;;10.99;73.61;101209.13;5098822;27;20219;-64
2022/03/17 03:13:10;;;;;;;43.93;28.10;;;;;;;11.02;73.22;101210.66;5103524;28;20269;-65
2022/03/17 03:15:38;;;;;;;38.03;29.07;;;;;;;10.89;73.79;101211.75;5125753;27;20457;-64
2022/03/17 03:18:06;;;;;;;41.50;29.57;;;;;;;10.93;74.42;101213.16;5125948;27;20337;-65
2022/03/17 03:20:34;;;;;;;40.83;29.50;;;;;;;10.87;74.52;101216.34;5131880;27;20400;-65
2022/03/17 03:23:01;;;;;;;42.37;28.53;;;;;;;10.85;74.79;101210.31;5128268;27;20521;-64
2022/03/17 03:25:29;;;;;;;42.13;28.23;;;;;;;10.99;73.96;101217.09;5129814;27;20580;-64
2022/03/17 03:27:57;;;;;;;42.63;31.17;;;;;;;11.00;73.88;101217.91;5128401;27;20226;-65
2022/03/17 03:30:26;;;;;;;38.43;28.90;;;;;;;10.81;74.95;101208.91;5129856;27;20214;-64
2022/03/17 03:33:08;;;;;;;43.27;28.70;;;;;;;10.99;73.82;101214.44;5127122;27;20672;-64
2022/03/17 03:38:21;;;;;;;40.90;27.93;;;;;;;11.06;73.40;101207.63;5128014;27;20204;-64
2022/03/17 03:40:59;;;;;;;41.30;29.40;;;;;;;11.01;73.92;101209.81;5127112;27;20233;-64
2022/03/17 03:43:27;;;;;;;42.53;30.33;;;;;;;11.06;73.82;101223.56;5127698;27;20207;-64
2022/03/17 03:45:56;;;;;;;43.63;30.47;;;;;;;10.90;75.29;101218.72;5130085;27;20229;-63
2022/03/17 03:48:24;;;;;;;39.57;30.07;;;;;;;10.97;74.47;101220.84;5124918;27;20236;-65
2022/03/17 03:50:52;;;;;;;41.63;29.60;;;;;;;11.01;74.27;101222.25;5130568;27;20204;-64
2022/03/17 03:53:20;;;;;;;42.63;29.77;;;;;;;10.83;75.04;101229.97;5127660;27;20231;-64
2022/03/17 03:55:48;;;;;;;44.50;30.73;;;;;;;10.88;74.82;101225.13;5129139;27;20677;-64
2022/03/17 03:58:18;;;;;;;42.87;30.67;;;;;;;10.76;74.63;101221.72;5129769;27;20623;-65
2022/03/17 04:00:46;;;;;;;41.57;30.03;;;;;;;10.80;74.32;101223.16;5130798;27;20239;-65
2022/03/17 04:03:15;;;;;;;46.07;31.10;;;;;;;10.98;73.62;101235.81;5133354;27;20310;-64
2022/03/17 04:05:44;;;;;;;44.80;30.60;;;;;;;10.56;75.28;101257.03;5128164;27;20276;-65
2022/03/17 04:08:12;;;;;;;38.47;28.07;;;;;;;10.55;76.41;101266.78;5125902;27;20605;-63
2022/03/17 04:10:40;;;;;;;41.80;29.63;;;;;;;10.69;75.91;101255.03;5128231;27;20238;-64
2022/03/17 04:13:07;;;;;;;42.63;30.07;;;;;;;10.79;74.97;101263.06;5128375;27;20606;-64
2022/03/17 04:15:35;;;;;;;42.50;29.67;;;;;;;10.91;74.75;101254.03;5129143;27;20204;-63
2022/03/17 04:18:03;;;;;;;42.80;30.77;;;;;;;10.66;75.48;101254.44;5129554;27;20604;-64
2022/03/17 04:20:32;;;;;;;42.67;30.90;;;;;;;10.87;74.68;101266.75;5127292;27;20212;-64
2022/03/17 04:23:00;;;;;;;42.23;30.93;;;;;;;10.79;74.58;101247.16;5124412;27;20221;-65
2022/03/17 04:25:28;;;;;;;39.70;31.07;;;;;;;10.67;74.41;101251.66;5130168;27;20244;-64
2022/03/17 04:27:56;;;;;;;41.80;29.87;;;;;;;10.90;73.51;101261.19;5124009;27;20831;-64
2022/03/17 04:30:36;;;;;;;41.90;30.53;;;;;;;10.87;73.94;101266.75;5124567;27;20297;-64
2022/03/17 04:33:03;;;;;;;42.17;30.80;;;;;;;10.93;73.95;101270.69;5123835;27;20213;-64
2022/03/17 04:35:47;;;;;;;41.13;31.00;;;;;;;10.98;73.25;101273.81;5125254;27;20693;-64
2022/03/17 04:38:16;;;;;;;45.37;31.37;;;;;;;10.91;73.82;101277.94;5122314;27;20198;-64
2022/03/17 04:40:49;;;;;;;42.90;31.90;;;;;;;10.93;73.70;101282.13;5126034;27;20301;-64
2022/03/17 04:43:18;;;;;;;44.13;31.80;;;;;;;10.85;73.68;101289.91;5123257;27;20221;-64
2022/03/17 04:45:46;;;;;;;45.10;31.87;;;;;;;10.93;73.61;101299.88;5122509;27;20234;-64
2022/03/17 04:48:15;;;;;;;44.23;31.83;;;;;;;10.96;73.75;101290.81;5125656;27;20226;-64
2022/03/17 04:50:43;;;;;;;42.53;31.50;;;;;;;10.97;73.66;101295.16;5124606;27;20290;-64
2022/03/17 04:53:29;;;;;;;44.43;31.20;;;;;;;10.96;73.53;101290.81;5125796;27;20220;-64
2022/03/17 04:55:58;;;;;;;41.33;30.73;;;;;;;10.93;73.40;101291.91;5122416;27;20206;-64
2022/03/17 04:58:27;;;;;;;41.40;30.83;;;;;;;11.04;72.44;101293.66;5124533;27;20613;-64
2022/03/17 05:00:55;;;;;;;43.13;30.20;;;;;;;11.03;71.92;101289.31;5123095;27;20226;-65
2022/03/17 05:03:23;;;;;;;42.07;31.47;;;;;;;10.92;72.50;101287.56;5121999;27;20683;-65
2022/03/17 05:05:51;;;;;;;42.90;31.07;;;;;;;11.00;72.29;101302.84;5120209;27;20704;-64
2022/03/17 05:08:21;;;;;;;44.50;31.60;;;;;;;11.07;72.57;101309.34;5124512;27;20219;-65
2022/03/17 05:10:52;;;;;;;40.40;30.03;;;;;;;11.12;72.53;101313.25;5125328;27;20200;-64
2022/03/17 05:13:22;;;;;;;43.50;31.53;;;;;;;10.89;72.90;101320.53;5119691;27;20237;-64
2022/03/17 05:15:51;;;;;;;42.90;30.57;;;;;;;11.03;72.59;101335.28;5119831;27;20234;-64
2022/03/17 05:18:20;;;;;;;43.17;31.73;;;;;;;11.02;72.69;101338.06;5123381;27;20255;-64
2022/03/17 05:20:48;;;;;;;41.50;30.07;;;;;;;10.92;73.15;101343.28;5121706;27;20205;-64
2022/03/17 05:23:31;;;;;;;45.33;31.17;;;;;;;10.91;73.38;101337.16;5124409;27;20323;-65
2022/03/17 05:26:01;;;;;;;42.60;32.17;;;;;;;10.96;72.47;101333.28;5121658;27;20381;-63
2022/03/17 05:28:29;;;;;;;43.57;31.10;;;;;;;10.85;73.17;101316.44;5124798;27;20233;-63
2022/03/17 05:30:57;;;;;;;42.43;31.67;;;;;;;10.97;72.93;101313.72;5123310;27;20668;-65
2022/03/17 05:33:24;;;;;;;45.27;31.77;;;;;;;11.01;72.29;101315.13;5123726;27;20198;-65
2022/03/17 05:35:52;;;;;;;44.83;32.70;;;;;;;11.06;71.56;101320.91;5123312;27;20299;-65
2022/03/17 05:38:20;;;;;;;45.83;31.90;;;;;;;11.04;71.52;101328.16;5123508;27;20297;-65
2022/03/17 05:40:48;;;;;;;47.10;31.67;;;;;;;11.01;71.83;101331.06;5123137;27;20290;-63
2022/03/17 05:43:18;;;;;;;47.57;32.03;;;;;;;11.00;71.64;101334.69;5120532;27;20262;-64
2022/03/17 05:45:45;;;;;;;45.37;32.37;;;;;;;11.02;71.66;101332.75;5122325;27;20225;-64
2022/03/17 05:48:13;;;;;;;43.10;32.63;;;;;;;11.04;71.51;101344.94;5121863;27;20209;-66
2022/03/17 05:50:45;;;;;;;42.27;31.50;;;;;;;11.06;71.83;101345.66;5122417;27;20212;-65
2022/03/17 05:53:12;;;;;;;44.17;33.00;;;;;;;11.14;71.50;101345.84;5120192;27;20476;-65
2022/03/17 05:55:40;;;;;;;48.73;33.03;;;;;;;11.11;71.70;101363.81;5124396;27;20294;-64
2022/03/17 05:58:08;;;;;;;43.77;32.03;;;;;;;11.05;72.05;101362.53;5121469;27;20744;-65
2022/03/17 06:00:37;;;;;;;48.95;36.22;;;;;;;11.08;72.30;101375.53;5122079;27;20441;-64
2022/03/17 06:03:05;;;;;;;48.50;33.63;;;;;;;11.09;71.97;101369.25;5121741;27;20336;-64
2022/03/17 06:05:33;;;;;;;45.90;33.30;;;;;;;10.96;73.23;101375.75;5122019;27;20518;-66
2022/03/17 06:08:01;;;;;;;46.90;31.87;;;;;;;11.15;72.35;101375.88;5121312;27;20225;-66
2022/03/17 06:10:32;;;;;;;43.97;31.47;;;;;;;11.17;72.13;101376.59;5121198;27;20647;-64
2022/03/17 06:13:04;;;;;;;54.87;34.17;;;;;;;11.14;72.52;101384.81;5122732;27;20335;-64
2022/03/17 06:15:33;;;;;;;56.73;35.87;;;;;;;11.06;72.21;101393.44;5125532;27;20296;-65
2022/03/17 06:18:04;;;;;;;56.77;35.20;;;;;;;11.13;71.84;101397.25;5123085;27;20205;-64
2022/03/17 06:20:34;;;;;;;50.03;34.30;;;;;;;11.14;71.85;101395.44;5124776;27;20200;-64
2022/03/17 06:23:03;;;;;;;53.20;35.60;;;;;;;11.13;71.82;101399.06;5127307;27;20648;-64
2022/03/17 06:25:33;;;;;;;51.67;34.10;;;;;;;11.11;72.41;101407.13;5128726;27;20227;-65
2022/03/17 06:28:07;;;;;;;50.43;34.43;;;;;;;11.24;71.97;101412.28;5126577;27;20427;-65
2022/03/17 06:30:36;;;;;;;49.70;33.77;;;;;;;11.22;71.37;101415.06;5128741;27;20246;-66
2022/03/17 06:33:08;;;;;;;50.33;34.83;;;;;;;11.23;71.23;101415.91;5124800;27;20673;-65
2022/03/17 06:35:37;;;;;;;51.50;35.00;;;;;;;11.23;71.12;101427.34;5126735;27;20213;-65
2022/03/17 06:38:06;;;;;;;47.97;34.20;;;;;;;11.25;71.02;101435.19;5121863;27;20214;-66
2022/03/17 06:40:35;;;;;;;53.93;35.37;;;;;;;11.20;71.58;101435.56;5122373;27;20253;-66
2022/03/17 06:43:03;;;;;;;54.97;35.63;;;;;;;11.25;71.29;101436.03;5121490;27;20233;-66
2022/03/17 06:45:31;;;;;;;54.10;38.07;;;;;;;11.31;71.01;101437.31;5123728;27;20316;-65
2022/03/17 06:47:59;;;;;;;51.70;37.13;;;;;;;11.29;71.21;101441.91;5120586;27;20335;-65
2022/03/17 06:50:33;;;;;;;48.17;36.97;;;;;;;11.25;71.51;101443.16;5123377;27;20632;-66
2022/03/17 06:53:01;;;;;;;49.77;36.27;;;;;;;11.23;71.72;101445.09;5121782;27;20218;-64
2022/03/17 06:55:31;;;;;;;48.67;35.70;;;;;;;11.36;71.58;101443.06;5122246;27;20548;-64
2022/03/17 06:57:58;;;;;;;51.23;35.80;;;;;;;11.31;72.11;101445.28;5120616;27;20207;-64
2022/03/17 07:00:26;;;;;;;47.33;35.83;;;;;;;11.33;71.61;101440.69;5122988;27;20210;-63
2022/03/17 07:02:54;;;;;;;49.93;36.43;;;;;;;11.26;71.47;101442.16;5119599;27;20207;-64
2022/03/17 07:05:22;;;;;;;48.93;36.27;;;;;;;11.33;71.17;101451.31;5117108;27;20533;-64
2022/03/17 07:07:51;;;;;;;50.93;35.07;;;;;;;11.36;71.26;101448.38;5118951;27;20223;-65
2022/03/17 07:10:18;;;;;;;51.57;35.47;;;;;;;11.36;71.83;101445.72;5121929;27;20228;-65
2022/03/17 07:12:47;;;;;;;47.47;34.50;;;;;;;11.43;70.41;101460.22;5118366;27;20199;-65
2022/03/17 07:15:15;;;;;;;51.57;34.37;;;;;;;11.38;70.97;101451.75;5122675;28;20236;-64
2022/03/17 07:17:43;;;;;;;47.50;34.57;;;;;;;11.42;70.60;101450.56;5120345;28;20571;-65
2022/03/17 07:20:13;;;;;;;46.17;32.93;;;;;;;11.45;71.02;101444.97;5120814;28;20205;-66
2022/03/17 07:22:41;;;;;;;46.50;33.50;;;;;;;11.46;70.33;101459.94;5115451;28;20290;-65
2022/03/17 07:25:12;;;;;;;44.57;32.23;;;;;;;11.45;69.60;101463.56;5121645;28;20340;-65
2022/03/17 07:27:42;;;;;;;49.80;35.07;;;;;;;11.53;68.89;101468.22;5122154;28;20617;-65
2022/03/17 07:30:12;;;;;;;43.73;31.73;;;;;;;11.52;69.04;101475.34;5122500;27;20592;-65
2022/03/17 07:32:42;;;;;;;48.70;33.07;;;;;;;11.38;70.75;101473.00;5121701;27;20298;-66
2022/03/17 07:35:10;;;;;;;45.37;33.77;;;;;;;11.47;68.58;101482.88;5120041;27;20602;-65
2022/03/17 07:37:38;;;;;;;42.80;32.33;;;;;;;11.30;68.46;101484.28;5122934;28;20218;-65
2022/03/17 07:40:07;;;;;;;48.97;34.13;;;;;;;11.51;68.29;101500.25;5120781;28;20366;-65
2022/03/17 07:42:36;;;;;;;47.13;33.37;;;;;;;11.58;68.48;101506.72;5124371;28;20573;-65
2022/03/17 07:45:06;;;;;;;47.63;32.87;;;;;;;11.57;68.19;101499.72;5120161;28;20247;-66
2022/03/17 07:47:34;;;;;;;44.40;32.10;;;;;;;11.61;67.75;101511.75;5122101;28;20201;-65
2022/03/17 07:50:04;;;;;;;43.20;32.83;;;;;;;11.64;67.85;101510.66;5120965;28;20240;-64
2022/03/17 07:52:34;;;;;;;44.93;32.63;;;;;;;11.65;67.83;101515.84;5119867;28;20232;-66
2022/03/17 07:55:04;;;;;;;43.33;31.67;;;;;;;11.69;67.69;101516.44;5115098;28;20699;-65
2022/03/17 07:57:32;;;;;;;42.50;31.20;;;;;;;11.74;67.54;101510.72;5115898;28;20662;-65
2022/03/17 08:00:01;;;;;;;44.23;32.57;;;;;;;11.79;67.83;101519.16;5124156;27;20209;-64
2022/03/17 08:02:28;;;;;;;41.80;31.87;;;;;;;11.64;68.83;101526.59;5121295;27;20213;-65
2022/03/17 08:04:58;;;;;;;43.23;31.60;;;;;;;11.77;67.62;101529.94;5123202;27;20212;-65
2022/03/17 08:07:32;;;;;;;46.07;33.33;;;;;;;11.84;67.61;101538.25;5128888;27;20281;-65
2022/03/17 08:10:00;;;;;;;47.43;33.83;;;;;;;11.88;67.54;101537.84;5129351;27;20235;-66
2022/03/17 08:12:27;;;;;;;43.20;30.83;;;;;;;11.91;67.53;101536.72;5129019;27;20420;-65
2022/03/17 08:14:55;;;;;;;43.50;31.93;;;;;;;11.94;67.19;101544.47;5127006;27;20599;-66
2022/03/17 08:17:24;;;;;;;42.57;31.43;;;;;;;11.98;67.15;101533.41;5125162;27;20205;-66
2022/03/17 08:19:53;;;;;;;43.07;31.73;;;;;;;11.98;66.72;101538.72;5127434;27;20213;-65
2022/03/17 08:22:21;;;;;;;43.27;31.27;;;;;;;11.98;66.67;101535.22;5122256;27;20266;-65
2022/03/17 08:24:48;;;;;;;44.07;30.30;;;;;;;11.98;67.13;101541.41;5127091;27;20256;-66
2022/03/17 08:27:16;;;;;;;52.10;34.30;;;;;;;11.91;67.54;101536.72;5124267;27;20236;-64
2022/03/17 08:29:45;;;;;;;45.53;33.17;;;;;;;11.99;67.00;101542.25;5130056;27;20722;-64
2022/03/17 08:32:13;;;;;;;51.97;32.13;;;;;;;12.01;67.39;101545.63;5125054;27;20213;-64
2022/03/17 08:34:43;;;;;;;42.73;32.30;;;;;;;12.04;67.88;101558.66;5129383;27;20251;-65
2022/03/17 08:37:11;;;;;;;51.83;34.03;;;;;;;12.05;67.31;101563.81;5129950;27;20209;-66
2022/03/17 08:39:41;;;;;;;42.47;32.47;;;;;;;12.05;67.20;101560.31;5129074;27;20275;-65
2022/03/17 08:42:09;;;;;;;43.67;32.00;;;;;;;12.09;67.26;101552.94;5129680;27;20564;-65
2022/03/17 08:44:37;;;;;;;45.47;33.57;;;;;;;12.12;66.52;101547.34;5122238;27;20214;-67
2022/03/17 08:49:51;;;;;;;44.60;33.40;;;;;;;12.13;67.66;101557.88;5123252;27;20569;-66
2022/03/17 08:52:20;;;;;;;41.83;31.30;;;;;;;12.00;66.60;101566.03;5127055;27;20300;-66
2022/03/17 08:54:48;;;;;;;51.80;35.03;;;;;;;12.11;66.14;101562.47;5125868;27;20629;-65
2022/03/17 08:57:16;;;;;;;45.50;33.67;;;;;;;12.07;66.83;101567.19;5127715;27;20572;-62
2022/03/17 08:59:53;;;;;;;46.77;33.50;;;;;;;12.19;65.89;101577.75;5124422;27;20213;-64
2022/03/17 09:02:23;;;;;;;46.90;34.13;;;;;;;12.27;65.88;101580.59;5129561;27;20308;-65
2022/03/17 09:04:52;;;;;;;45.37;31.77;;;;;;;12.29;65.76;101587.47;5130278;27;20550;-65
2022/03/17 09:07:21;;;;;;;43.27;32.50;;;;;;;12.33;65.85;101593.34;5132809;27;20209;-65
2022/03/17 09:09:48;;;;;;;43.47;33.10;;;;;;;12.29;66.29;101592.81;5124911;27;20251;-65
2022/03/17 09:12:16;;;;;;;41.73;32.60;;;;;;;12.21;66.05;101597.94;5128125;27;20205;-65
2022/03/17 09:14:44;;;;;;;43.83;31.77;;;;;;;12.28;65.82;101604.41;5129422;27;20237;-65
2022/03/17 09:17:12;;;;;;;37.67;30.23;;;;;;;12.33;65.62;101604.84;5127591;27;20236;-66
2022/03/17 09:19:40;;;;;;;39.23;30.73;;;;;;;12.39;65.78;101607.00;5121388;27;20211;-64
2022/03/17 09:22:10;;;;;;;47.83;31.50;;;;;;;12.36;66.43;101598.44;5129613;27;20308;-64
2022/03/17 09:24:37;;;;;;;42.20;32.40;;;;;;;12.44;65.27;101604.78;5127437;27;20649;-65
2022/03/17 09:27:06;;;;;;;41.13;29.83;;;;;;;12.45;64.65;101613.59;5123713;27;20625;-66
2022/03/17 09:29:35;;;;;;;39.63;30.67;;;;;;;12.49;64.63;101620.31;5128848;27;20244;-66
2022/03/17 09:32:04;;;;;;;42.43;30.53;;;;;;;12.50;64.57;101610.53;5131016;27;20785;-65
2022/03/17 09:34:32;;;;;;;44.10;30.83;;;;;;;12.57;63.93;101609.03;5129617;27;20303;-63
2022/03/17 09:37:00;;;;;;;38.07;28.93;;;;;;;12.65;62.60;101617.19;5130691;27;20559;-64
2022/03/17 09:39:45;;;;;;;38.77;30.33;;;;;;;12.62;61.94;101622.78;5128621;27;20203;-66
2022/03/17 09:42:14;;;;;;;39.73;30.80;;;;;;;12.61;61.75;101637.06;5132727;27;20201;-66
2022/03/17 09:44:45;;;;;;;42.10;30.20;;;;;;;12.57;62.58;101638.31;5128052;27;20929;-66
2022/03/17 09:47:14;;;;;;;40.40;30.03;;;;;;;12.59;62.18;101637.19;5125147;27;20211;-66
2022/03/17 09:49:44;;;;;;;41.50;29.87;;;;;;;12.64;62.13;101636.81;5118107;27;20208;-65
2022/03/17 09:52:13;;;;;;;39.67;29.83;;;;;;;12.71;62.26;101641.44;5123589;27;20223;-66
2022/03/17 09:54:43;;;;;;;38.73;28.83;;;;;;;12.78;61.52;101636.44;5123411;27;20241;-64
2022/03/17 09:57:11;;;;;;;40.03;30.63;;;;;;;12.84;61.83;101645.72;5141160;27;20219;-66
2022/03/17 09:59:38;;;;;;;38.93;29.43;;;;;;;12.84;61.06;101651.84;5133281;27;20205;-63
2022/03/17 10:02:06;;;;;;;41.37;31.30;;;;;;;12.81;61.98;101657.47;5133358;27;20204;-63
2022/03/17 10:04:36;;;;;;;38.20;30.27;;;;;;;12.81;62.31;101658.31;5132784;27;20259;-64
2022/03/17 10:07:04;;;;;;;40.27;30.13;;;;;;;12.84;62.07;101662.50;5124784;27;20229;-62
2022/03/17 10:09:32;;;;;;;43.73;32.10;;;;;;;12.83;62.05;101663.50;5124813;27;20206;-63
2022/03/17 10:12:05;;;;;;;45.57;31.83;;;;;;;12.90;62.56;101661.13;5127377;27;20225;-64
2022/03/17 10:14:38;;;;;;;38.37;28.93;;;;;;;12.81;62.84;101665.44;5127627;27;20230;-64
2022/03/17 10:17:07;;;;;;;41.03;30.77;;;;;;;12.89;62.46;101668.28;5125889;27;20222;-62
2022/03/17 10:19:36;;;;;;;39.30;31.20;;;;;;;12.93;62.68;101672.34;5126597;27;20253;-64
2022/03/17 10:22:08;;;;;;;42.50;31.13;;;;;;;12.99;62.10;101677.16;5128108;27;20218;-63
2022/03/17 10:24:36;;;;;;;37.53;28.27;;;;;;;12.88;61.98;101679.91;5120762;27;20215;-63
2022/03/17 10:27:05;;;;;;;35.67;27.70;;;;;;;12.81;61.88;101684.09;5120799;27;20665;-62
2022/03/17 10:29:34;;;;;;;41.00;30.20;;;;;;;12.82;61.45;101688.44;5124233;27;20204;-64
2022/03/17 10:32:07;;;;;;;38.93;29.40;;;;;;;12.81;61.62;101695.56;5120387;27;20257;-63
2022/03/17 10:34:58;;;;;;;38.53;29.50;;;;;;;12.78;61.75;101698.50;5119027;27;20213;-62
2022/03/17 10:37:30;;;;;;;39.33;29.80;;;;;;;12.79;62.29;101699.34;5121661;27;20614;-63
2022/03/17 10:40:01;;;;;;;39.43;30.30;;;;;;;12.64;64.20;101700.66;5119664;27;20232;-63
2022/03/17 10:42:31;;;;;;;39.47;30.90;;;;;;;12.59;64.72;101713.50;5123964;27;20263;-63
2022/03/17 10:45:05;;;;;;;40.70;29.63;;;;;;;12.68;64.68;101713.56;5123004;27;20230;-63
2022/03/17 10:47:43;;;;;;;41.57;31.07;;;;;;;12.76;64.50;101723.53;5129691;27;20216;-62
2022/03/17 10:50:13;;;;;;;40.77;29.47;;;;;;;12.68;64.34;101724.22;5128014;27;20583;-63
2022/03/17 10:52:46;;;;;;;40.03;30.47;;;;;;;12.72;64.87;101732.78;5126955;27;20226;-63
2022/03/17 10:55:14;;;;;;;40.23;30.60;;;;;;;12.74;64.87;101723.69;5121463;27;20209;-62
2022/03/17 10:57:43;;;;;;;42.03;31.27;;;;;;;12.80;64.86;101730.31;5123048;27;20669;-63
2022/03/17 11:00:23;;;;;;;44.97;31.00;;;;;;;12.66;65.56;101733.31;5122863;27;21839;-62
2022/03/17 11:02:53;;;;;;;40.70;31.47;;;;;;;12.58;65.64;101741.09;5119085;27;20692;-63
2022/03/17 11:05:21;;;;;;;41.53;31.40;;;;;;;12.61;65.87;101741.69;5125912;27;20203;-62
2022/03/17 11:07:51;;;;;;;40.57;32.17;;;;;;;12.71;65.38;101747.06;5122638;27;20715;-62
2022/03/17 11:10:27;;;;;;;45.10;31.53;;;;;;;12.70;66.04;101751.53;5122420;27;20212;-66
2022/03/17 11:12:56;;;;;;;41.13;32.07;;;;;;;12.61;66.10;101751.47;5127239;27;20234;-64
2022/03/17 11:15:29;;;;;;;41.63;31.27;;;;;;;12.69;66.12;101751.66;5122374;28;20209;-64
2022/03/17 11:18:03;;;;;;;43.00;31.83;;;;;;;12.62;66.04;101751.34;5122393;27;20663;-63
2022/03/17 11:20:32;;;;;;;43.10;31.97;;;;;;;12.59;66.79;101759.59;5125970;27;20211;-64
2022/03/17 11:23:18;;;;;;;44.53;33.33;;;;;;;12.69;66.83;101762.31;5129793;27;20203;-66
2022/03/17 11:26:01;;;;;;;46.97;33.00;;;;;;;12.61;66.42;101757.66;5122910;27;20302;-64
2022/03/17 11:28:39;;;;;;;46.57;34.03;;;;;;;12.59;66.43;101764.91;5120854;27;20197;-65